createdAt,value
2018-04-11T00:00:06.424Z,17.89
2018-04-11T00:01:06.273Z,17.89
2018-04-11T00:02:06.267Z,17.91
2018-04-11T00:03:06.346Z,17.9
2018-04-11T00:04:06.316Z,17.9
2018-04-11T00:05:06.341Z,17.9
2018-04-11T00:06:06.309Z,17.91
2018-04-11T00:07:06.291Z,17.89
2018-04-11T00:08:06.287Z,17.91
2018-04-11T00:09:06.281Z,17.89
2018-04-11T00:10:06.329Z,17.9
2018-04-11T00:11:06.309Z,17.89
2018-04-11T00:12:06.315Z,17.89
2018-04-11T00:13:06.281Z,17.89
2018-04-11T00:14:06.292Z,17.9
2018-04-11T00:15:06.307Z,17.89
2018-04-11T00:16:06.297Z,17.89
2018-04-11T00:17:06.307Z,17.9
2018-04-11T00:18:06.469Z,17.9
2018-04-11T00:19:06.303Z,17.9
2018-04-11T00:20:06.286Z,17.91
2018-04-11T00:21:06.312Z,17.87
2018-04-11T00:22:06.317Z,17.88
2018-04-11T00:23:06.300Z,17.88
2018-04-11T00:24:06.556Z,17.89
2018-04-11T00:25:06.603Z,17.89
2018-04-11T00:26:06.395Z,17.85
2018-04-11T00:27:06.434Z,17.85
2018-04-11T00:28:06.318Z,17.85
2018-04-11T00:29:06.311Z,17.87
2018-04-11T00:30:06.308Z,17.9
2018-04-11T00:31:06.720Z,17.87
2018-04-11T00:32:06.382Z,17.88
2018-04-11T00:33:06.519Z,17.89
2018-04-11T00:34:06.296Z,17.88
2018-04-11T00:35:06.579Z,17.87
2018-04-11T00:36:06.262Z,17.83
2018-04-11T00:37:06.294Z,17.85
2018-04-11T00:38:06.315Z,17.88
2018-04-11T00:39:06.439Z,17.85
2018-04-11T00:40:06.366Z,17.87
2018-04-11T00:41:06.266Z,17.85
2018-04-11T00:42:06.548Z,17.83
2018-04-11T00:43:06.266Z,17.84
2018-04-11T00:44:06.291Z,17.83
2018-04-11T00:45:06.347Z,17.83
2018-04-11T00:46:06.363Z,17.82
2018-04-11T00:47:06.235Z,17.83
2018-04-11T00:48:06.283Z,17.83
2018-04-11T00:49:06.439Z,17.84
2018-04-11T00:50:06.289Z,17.84
2018-04-11T00:51:06.271Z,17.85
2018-04-11T00:52:06.312Z,17.84
2018-04-11T00:53:06.345Z,17.85
2018-04-11T00:54:06.301Z,17.84
2018-04-11T00:55:06.276Z,17.83
2018-04-11T00:56:06.286Z,17.83
2018-04-11T00:57:06.242Z,17.87
2018-04-11T00:58:06.273Z,17.83
2018-04-11T00:59:06.266Z,17.82
2018-04-11T01:00:06.251Z,17.82
2018-04-11T01:01:06.283Z,17.81
2018-04-11T01:02:06.308Z,17.81
2018-04-11T01:03:06.268Z,17.83
2018-04-11T01:04:06.272Z,17.8
2018-04-11T01:05:06.490Z,17.81
2018-04-11T01:06:06.290Z,17.82
2018-04-11T01:07:06.272Z,17.81
2018-04-11T01:08:06.577Z,17.82
2018-04-11T01:09:06.289Z,17.8
2018-04-11T01:10:06.297Z,17.79
2018-04-11T01:11:06.300Z,17.8
2018-04-11T01:12:06.243Z,17.8
2018-04-11T01:13:06.462Z,17.77
2018-04-11T01:14:06.350Z,17.8
2018-04-11T01:15:06.564Z,17.8
2018-04-11T01:16:06.478Z,17.8
2018-04-11T01:17:06.553Z,17.77
2018-04-11T01:18:06.246Z,17.8
2018-04-11T01:19:06.237Z,17.79
2018-04-11T01:20:06.358Z,17.8
2018-04-11T01:21:06.401Z,17.8
2018-04-11T01:22:06.652Z,17.78
2018-04-11T01:23:06.290Z,17.78
2018-04-11T01:24:06.267Z,17.77
2018-04-11T01:25:06.569Z,17.8
2018-04-11T01:26:06.277Z,17.8
2018-04-11T01:27:06.291Z,17.8
2018-04-11T01:28:06.528Z,17.79
2018-04-11T01:29:06.474Z,17.77
2018-04-11T01:30:06.264Z,17.78
2018-04-11T01:31:06.258Z,17.76
2018-04-11T01:32:06.327Z,17.76
2018-04-11T01:33:06.613Z,17.77
2018-04-11T01:34:06.298Z,17.77
2018-04-11T01:35:06.247Z,17.78
2018-04-11T01:36:06.244Z,17.78
2018-04-11T01:37:06.243Z,17.77
2018-04-11T01:38:06.494Z,17.76
2018-04-11T01:39:06.456Z,17.77
2018-04-11T01:40:06.243Z,17.76
2018-04-11T01:41:06.244Z,17.76
2018-04-11T01:42:06.582Z,17.77
2018-04-11T01:43:06.552Z,17.75
2018-04-11T01:44:06.250Z,17.76
2018-04-11T01:45:06.244Z,17.77
2018-04-11T01:46:06.233Z,17.76
2018-04-11T01:47:06.582Z,17.76
2018-04-11T01:48:06.465Z,17.76
2018-04-11T01:49:06.547Z,17.74
2018-04-11T01:50:06.271Z,17.76
2018-04-11T01:51:06.277Z,17.74
2018-04-11T01:52:06.255Z,17.76
2018-04-11T01:53:06.545Z,17.74
2018-04-11T01:54:06.236Z,17.74
2018-04-11T01:55:06.214Z,17.73
2018-04-11T01:56:06.230Z,17.76
2018-04-11T01:57:06.254Z,17.76
2018-04-11T01:58:06.246Z,17.75
2018-04-11T01:59:06.232Z,17.74
2018-04-11T02:00:06.315Z,17.75
2018-04-11T02:01:06.286Z,17.74
2018-04-11T02:02:06.314Z,17.74
2018-04-11T02:03:06.327Z,17.74
2018-04-11T02:04:06.236Z,17.73
2018-04-11T02:05:06.268Z,17.74
2018-04-11T02:06:06.389Z,17.73
2018-04-11T02:07:06.432Z,17.75
2018-04-11T02:08:06.237Z,17.73
2018-04-11T02:09:06.242Z,17.74
2018-04-11T02:10:06.311Z,17.73
2018-04-11T02:11:06.359Z,17.74
2018-04-11T02:12:06.287Z,17.73
2018-04-11T02:13:06.487Z,17.73
2018-04-11T02:14:06.601Z,17.72
2018-04-11T02:15:06.273Z,17.73
2018-04-11T02:16:06.257Z,17.73
2018-04-11T02:17:06.611Z,17.73
2018-04-11T02:18:06.516Z,17.73
2018-04-11T02:19:06.470Z,17.72
2018-04-11T02:20:06.240Z,17.7
2018-04-11T02:21:06.228Z,17.72
2018-04-11T02:22:06.381Z,17.72
2018-04-11T02:23:06.561Z,17.72
2018-04-11T02:24:06.485Z,17.72
2018-04-11T02:25:06.207Z,17.73
2018-04-11T02:26:06.250Z,17.7
2018-04-11T02:27:06.251Z,17.72
2018-04-11T02:28:06.338Z,17.72
2018-04-11T02:29:06.224Z,17.73
2018-04-11T02:30:06.234Z,17.73
2018-04-11T02:31:06.229Z,17.7
2018-04-11T02:32:06.511Z,17.7
2018-04-11T02:33:06.236Z,17.72
2018-04-11T02:34:06.207Z,17.68
2018-04-11T02:35:06.397Z,17.68
2018-04-11T02:36:06.324Z,17.7
2018-04-11T02:37:06.291Z,17.69
2018-04-11T02:38:06.238Z,17.69
2018-04-11T02:39:06.604Z,17.69
2018-04-11T02:40:06.264Z,17.72
2018-04-11T02:41:06.695Z,17.68
2018-04-11T02:42:06.276Z,17.7
2018-04-11T02:43:06.220Z,17.68
2018-04-11T02:44:06.541Z,17.68
2018-04-11T02:45:06.315Z,17.68
2018-04-11T02:46:06.254Z,17.68
2018-04-11T02:47:06.242Z,17.68
2018-04-11T02:48:06.786Z,17.68
2018-04-11T02:49:06.561Z,17.68
2018-04-11T02:50:06.305Z,17.69
2018-04-11T02:51:06.217Z,17.7
2018-04-11T02:52:06.267Z,17.68
2018-04-11T02:53:06.307Z,17.68
2018-04-11T02:54:06.402Z,17.67
2018-04-11T02:55:06.312Z,17.69
2018-04-11T02:56:06.375Z,17.66
2018-04-11T02:57:06.434Z,17.68
2018-04-11T02:58:06.207Z,17.67
2018-04-11T02:59:06.555Z,17.67
2018-04-11T03:00:06.250Z,17.66
2018-04-11T03:01:06.281Z,17.65
2018-04-11T03:02:06.282Z,17.67
2018-04-11T03:03:06.241Z,17.68
2018-04-11T03:04:06.628Z,17.68
2018-04-11T03:05:06.270Z,17.68
2018-04-11T03:06:06.453Z,17.66
2018-04-11T03:07:06.461Z,17.65
2018-04-11T03:08:06.496Z,17.65
2018-04-11T03:09:06.301Z,17.66
2018-04-11T03:10:06.697Z,17.67
2018-04-11T03:11:06.188Z,17.66
2018-04-11T03:12:06.711Z,17.66
2018-04-11T03:13:06.186Z,17.66
2018-04-11T03:14:06.271Z,17.65
2018-04-11T03:15:06.230Z,17.64
2018-04-11T03:16:06.193Z,17.63
2018-04-11T03:17:06.712Z,17.63
2018-04-11T03:18:06.225Z,17.65
2018-04-11T03:19:06.174Z,17.67
2018-04-11T03:20:06.261Z,17.65
2018-04-11T03:21:06.509Z,17.66
2018-04-11T03:22:06.567Z,17.65
2018-04-11T03:23:06.327Z,17.64
2018-04-11T03:24:06.464Z,17.66
2018-04-11T03:25:06.235Z,17.64
2018-04-11T03:26:06.397Z,17.63
2018-04-11T03:27:06.247Z,17.65
2018-04-11T03:28:06.668Z,17.63
2018-04-11T03:29:06.272Z,17.64
2018-04-11T03:30:06.259Z,17.63
2018-04-11T03:31:06.242Z,17.64
2018-04-11T03:32:06.268Z,17.63
2018-04-11T03:33:06.213Z,17.63
2018-04-11T03:34:06.234Z,17.64
2018-04-11T03:35:06.210Z,17.61
2018-04-11T03:36:06.216Z,17.64
2018-04-11T03:37:06.224Z,17.63
2018-04-11T03:38:06.220Z,17.62
2018-04-11T03:39:06.443Z,17.61
2018-04-11T03:40:06.194Z,17.62
2018-04-11T03:41:06.207Z,17.61
2018-04-11T03:42:06.583Z,17.62
2018-04-11T03:43:06.206Z,17.64
2018-04-11T03:44:06.234Z,17.63
2018-04-11T03:45:06.194Z,17.63
2018-04-11T03:46:06.212Z,17.63
2018-04-11T03:47:06.211Z,17.63
2018-04-11T03:48:06.590Z,17.64
2018-04-11T03:49:06.239Z,17.62
2018-04-11T03:50:06.212Z,17.63
2018-04-11T03:51:06.198Z,17.63
2018-04-11T03:52:06.663Z,17.63
2018-04-11T03:53:06.255Z,17.63
2018-04-11T03:54:06.435Z,17.63
2018-04-11T03:55:06.269Z,17.64
2018-04-11T03:56:06.516Z,17.66
2018-04-11T03:57:06.279Z,17.64
2018-04-11T03:58:06.239Z,17.64
2018-04-11T03:59:06.255Z,17.65
2018-04-11T04:00:06.302Z,17.66
2018-04-11T04:01:06.232Z,17.67
2018-04-11T04:02:06.217Z,17.67
2018-04-11T04:03:06.245Z,17.69
2018-04-11T04:04:06.207Z,17.68
2018-04-11T04:05:06.278Z,17.68
2018-04-11T04:06:06.220Z,17.72
2018-04-11T04:07:06.230Z,17.73
2018-04-11T04:08:06.211Z,17.76
2018-04-11T04:09:06.502Z,17.72
2018-04-11T04:10:06.246Z,17.75
2018-04-11T04:11:06.219Z,17.78
2018-04-11T04:12:06.663Z,17.77
2018-04-11T04:13:06.237Z,17.79
2018-04-11T04:14:06.267Z,17.81
2018-04-11T04:15:06.255Z,17.83
2018-04-11T04:16:06.641Z,17.83
2018-04-11T04:17:06.460Z,17.85
2018-04-11T04:18:06.184Z,17.87
2018-04-11T04:19:06.372Z,17.89
2018-04-11T04:20:06.225Z,17.9
2018-04-11T04:21:06.229Z,17.9
2018-04-11T04:22:06.546Z,17.92
2018-04-11T04:23:06.194Z,17.94
2018-04-11T04:24:06.447Z,17.97
2018-04-11T04:25:06.212Z,17.98
2018-04-11T04:26:06.352Z,17.98
2018-04-11T04:27:06.214Z,18
2018-04-11T04:28:06.249Z,18
2018-04-11T04:29:06.245Z,18.04
2018-04-11T04:30:06.187Z,18.06
2018-04-11T04:31:06.199Z,18.06
2018-04-11T04:32:06.274Z,18.07
2018-04-11T04:33:06.173Z,18.07
2018-04-11T04:34:06.333Z,18.1
2018-04-11T04:35:06.247Z,18.11
2018-04-11T04:36:06.229Z,18.13
2018-04-11T04:37:06.914Z,18.14
2018-04-11T04:38:06.220Z,18.15
2018-04-11T04:39:06.212Z,18.17
2018-04-11T04:40:06.409Z,18.19
2018-04-11T04:41:06.176Z,18.2
2018-04-11T04:42:06.329Z,18.19
2018-04-11T04:43:06.201Z,18.23
2018-04-11T04:44:06.278Z,18.24
2018-04-11T04:45:06.203Z,18.25
2018-04-11T04:46:06.308Z,18.26
2018-04-11T04:47:06.260Z,18.25
2018-04-11T04:48:06.216Z,18.28
2018-04-11T04:49:06.536Z,18.29
2018-04-11T04:50:06.229Z,18.29
2018-04-11T04:51:06.370Z,18.29
2018-04-11T04:52:06.782Z,18.34
2018-04-11T04:53:06.384Z,18.35
2018-04-11T04:54:06.299Z,18.33
2018-04-11T04:55:06.208Z,18.37
2018-04-11T04:56:06.234Z,18.36
2018-04-11T04:57:06.173Z,18.37
2018-04-11T04:58:06.321Z,18.4
2018-04-11T04:59:06.235Z,18.4
2018-04-11T05:00:06.191Z,18.4
2018-04-11T05:01:06.248Z,18.41
2018-04-11T05:02:06.232Z,18.41
2018-04-11T05:03:06.499Z,18.47
2018-04-11T05:04:06.159Z,18.47
2018-04-11T05:05:06.380Z,18.47
2018-04-11T05:06:06.608Z,18.47
2018-04-11T05:07:06.210Z,18.52
2018-04-11T05:08:06.202Z,18.49
2018-04-11T05:09:06.171Z,18.52
2018-04-11T05:10:06.148Z,18.53
2018-04-11T05:11:06.773Z,18.52
2018-04-11T05:12:06.165Z,18.54
2018-04-11T05:13:06.274Z,18.57
2018-04-11T05:14:06.172Z,18.57
2018-04-11T05:15:06.297Z,18.57
2018-04-11T05:16:06.232Z,18.58
2018-04-11T05:17:06.159Z,18.58
2018-04-11T05:18:06.286Z,18.61
2018-04-11T05:19:06.190Z,18.62
2018-04-11T05:20:06.166Z,18.63
2018-04-11T05:21:06.179Z,18.62
2018-04-11T05:22:06.197Z,18.63
2018-04-11T05:23:06.260Z,18.63
2018-04-11T05:24:06.293Z,18.66
2018-04-11T05:25:06.595Z,18.65
2018-04-11T05:26:06.160Z,18.65
2018-04-11T05:27:06.199Z,18.66
2018-04-11T05:28:06.196Z,18.68
2018-04-11T05:29:06.164Z,18.66
2018-04-11T05:30:06.145Z,18.66
2018-04-11T05:31:06.185Z,18.67
2018-04-11T05:32:06.194Z,18.68
2018-04-11T05:33:06.233Z,18.7
2018-04-11T05:34:06.587Z,18.69
2018-04-11T05:35:06.250Z,18.69
2018-04-11T05:36:06.160Z,18.69
2018-04-11T05:37:06.148Z,18.7
2018-04-11T05:38:06.147Z,18.71
2018-04-11T05:39:06.180Z,18.7
2018-04-11T05:40:06.161Z,18.72
2018-04-11T05:41:06.182Z,18.72
2018-04-11T05:42:06.407Z,18.74
2018-04-11T05:43:06.172Z,18.72
2018-04-11T05:44:06.600Z,18.72
2018-04-11T05:45:06.220Z,18.73
2018-04-11T05:46:06.169Z,18.78
2018-04-11T05:47:06.228Z,18.77
2018-04-11T05:48:06.148Z,18.81
2018-04-11T05:49:06.196Z,18.82
2018-04-11T05:50:06.199Z,18.84
2018-04-11T05:51:06.195Z,18.83
2018-04-11T05:52:06.180Z,18.84
2018-04-11T05:53:06.434Z,18.87
2018-04-11T05:54:06.152Z,18.86
2018-04-11T05:55:06.185Z,18.91
2018-04-11T05:56:06.137Z,18.91
2018-04-11T05:57:06.197Z,18.89
2018-04-11T05:58:06.259Z,18.95
2018-04-11T05:59:06.181Z,18.95
2018-04-11T06:00:06.157Z,18.97
2018-04-11T06:01:06.202Z,18.98
2018-04-11T06:02:06.147Z,18.98
2018-04-11T06:03:06.257Z,19
2018-04-11T06:04:06.156Z,19.02
2018-04-11T06:05:06.178Z,19.03
2018-04-11T06:06:06.187Z,19.03
2018-04-11T06:07:06.167Z,19.05
2018-04-11T06:08:06.183Z,19.07
2018-04-11T06:09:06.385Z,19.06
2018-04-11T06:10:06.143Z,19.09
2018-04-11T06:11:06.132Z,19.05
2018-04-11T06:12:06.179Z,19.05
2018-04-11T06:13:06.202Z,19.03
2018-04-11T06:14:06.345Z,19.01
2018-04-11T06:15:06.182Z,19
2018-04-11T06:16:06.289Z,19
2018-04-11T06:17:06.306Z,19.01
2018-04-11T06:18:06.191Z,19.02
2018-04-11T06:19:06.196Z,19
2018-04-11T06:20:06.316Z,19.01
2018-04-11T06:21:06.209Z,19.03
2018-04-11T06:22:06.166Z,19.05
2018-04-11T06:23:06.681Z,19.03
2018-04-11T06:24:06.328Z,19.02
2018-04-11T06:25:06.164Z,19.05
2018-04-11T06:26:06.241Z,19.03
2018-04-11T06:27:06.170Z,19.05
2018-04-11T06:28:06.405Z,19.05
2018-04-11T06:29:06.337Z,19.03
2018-04-11T06:30:06.380Z,19.01
2018-04-11T06:31:06.204Z,19.01
2018-04-11T06:32:06.166Z,19.03
2018-04-11T06:33:06.198Z,19.03
2018-04-11T06:34:06.204Z,19.03
2018-04-11T06:35:06.423Z,19.02
2018-04-11T06:36:06.129Z,19.05
2018-04-11T06:37:06.188Z,19.02
2018-04-11T06:38:06.183Z,19.03
2018-04-11T06:39:06.207Z,19.05
2018-04-11T06:40:06.154Z,19.05
2018-04-11T06:41:06.342Z,19.02
2018-04-11T06:42:06.452Z,19.01
2018-04-11T06:43:06.320Z,19.05
2018-04-11T06:44:06.198Z,19.02
2018-04-11T06:45:06.187Z,19.03
2018-04-11T06:46:06.188Z,19.02
2018-04-11T06:47:06.172Z,19.02
2018-04-11T06:48:06.196Z,18.99
2018-04-11T06:49:06.185Z,18.99
2018-04-11T06:50:06.202Z,18.97
2018-04-11T06:51:06.167Z,18.99
2018-04-11T06:52:06.123Z,19.01
2018-04-11T06:53:06.145Z,19.01
2018-04-11T06:54:06.161Z,19.03
2018-04-11T06:55:06.175Z,19.05
2018-04-11T06:56:06.153Z,19.06
2018-04-11T06:57:06.240Z,19.06
2018-04-11T06:58:06.136Z,19.08
2018-04-11T06:59:06.174Z,19.08
2018-04-11T07:00:06.196Z,19.08
2018-04-11T07:01:06.193Z,19.09
2018-04-11T07:02:06.271Z,19.06
2018-04-11T07:03:06.149Z,19.09
2018-04-11T07:04:06.162Z,19.09
2018-04-11T07:05:06.323Z,19.12
2018-04-11T07:06:06.163Z,19.13
2018-04-11T07:07:06.171Z,19.14
2018-04-11T07:08:06.173Z,19.13
2018-04-11T07:09:06.147Z,19.12
2018-04-11T07:10:06.155Z,19.11
2018-04-11T07:11:06.143Z,19.09
2018-04-11T07:12:06.135Z,19.09
2018-04-11T07:13:06.173Z,19.1
2018-04-11T07:14:06.681Z,19.09
2018-04-11T07:15:06.157Z,19.12
2018-04-11T07:16:06.134Z,19.09
2018-04-11T07:17:06.149Z,19.1
2018-04-11T07:18:06.141Z,19.1
2018-04-11T07:19:06.315Z,19.12
2018-04-11T07:20:06.178Z,19.09
2018-04-11T07:21:06.116Z,19.1
2018-04-11T07:22:06.163Z,19.1
2018-04-11T07:23:06.216Z,19.08
2018-04-11T07:24:06.326Z,19.09
2018-04-11T07:25:06.366Z,19.07
2018-04-11T07:26:06.165Z,19.05
2018-04-11T07:27:06.168Z,19.07
2018-04-11T07:28:06.132Z,19.05
2018-04-11T07:29:06.124Z,19.06
2018-04-11T07:30:06.145Z,19.06
2018-04-11T07:31:06.156Z,19.07
2018-04-11T07:32:06.127Z,19.06
2018-04-11T07:33:06.167Z,19.07
2018-04-11T07:34:06.164Z,19.05
2018-04-11T07:35:06.259Z,19.05
2018-04-11T07:36:06.268Z,19.06
2018-04-11T07:37:06.117Z,19.06
2018-04-11T07:38:06.285Z,19.05
2018-04-11T07:39:06.123Z,19.05
2018-04-11T07:40:06.563Z,19.05
2018-04-11T07:41:06.357Z,19.05
2018-04-11T07:42:06.156Z,19.03
2018-04-11T07:43:06.124Z,19.06
2018-04-11T07:44:06.224Z,19.05
2018-04-11T07:45:06.185Z,19.05
2018-04-11T07:46:06.650Z,19.05
2018-04-11T07:47:06.134Z,19.03
2018-04-11T07:48:06.149Z,19.03
2018-04-11T07:49:06.160Z,19.05
2018-04-11T07:50:06.164Z,19.05
2018-04-11T07:51:06.144Z,19.05
2018-04-11T07:52:06.147Z,19.06
2018-04-11T07:53:06.179Z,19.05
2018-04-11T07:54:06.623Z,19.05
2018-04-11T07:55:06.123Z,19.03
2018-04-11T07:56:06.133Z,19.05
2018-04-11T07:57:06.098Z,19.03
2018-04-11T07:58:06.140Z,19.03
2018-04-11T07:59:06.108Z,19.01
2018-04-11T08:00:06.102Z,19.03
2018-04-11T08:01:06.128Z,19.05
2018-04-11T08:02:06.141Z,19.02
2018-04-11T08:03:06.376Z,19.06
2018-04-11T08:04:06.291Z,19.05
2018-04-11T08:05:06.160Z,19.02
2018-04-11T08:06:06.126Z,19.02
2018-04-11T08:07:06.122Z,19.02
2018-04-11T08:08:06.260Z,19.01
2018-04-11T08:09:06.161Z,19.02
2018-04-11T08:10:06.514Z,19.01
2018-04-11T08:11:06.185Z,19.02
2018-04-11T08:12:06.134Z,19.02
2018-04-11T08:13:06.199Z,19.02
2018-04-11T08:14:06.124Z,18.99
2018-04-11T08:15:06.202Z,18.99
2018-04-11T08:16:06.097Z,18.99
2018-04-11T08:17:06.168Z,18.98
2018-04-11T08:18:06.190Z,18.99
2018-04-11T08:19:06.124Z,18.96
2018-04-11T08:20:06.086Z,18.94
2018-04-11T08:21:06.141Z,18.93
2018-04-11T08:22:06.151Z,18.95
2018-04-11T08:23:06.153Z,18.95
2018-04-11T08:24:06.147Z,18.92
2018-04-11T08:25:06.140Z,18.92
2018-04-11T08:26:06.254Z,18.92
2018-04-11T08:27:06.121Z,18.89
2018-04-11T08:28:06.156Z,18.91
2018-04-11T08:29:06.131Z,18.88
2018-04-11T08:30:06.132Z,18.88
2018-04-11T08:31:06.145Z,18.88
2018-04-11T08:32:06.129Z,18.86
2018-04-11T08:33:06.283Z,18.86
2018-04-11T08:34:06.183Z,18.86
2018-04-11T08:35:06.131Z,18.84
2018-04-11T08:36:06.099Z,18.84
2018-04-11T08:37:06.125Z,18.84
2018-04-11T08:38:06.169Z,18.83
2018-04-11T08:39:06.125Z,18.83
2018-04-11T08:40:06.149Z,18.83
2018-04-11T08:41:06.107Z,18.82
2018-04-11T08:42:06.148Z,18.81
2018-04-11T08:43:06.089Z,18.78
2018-04-11T08:44:06.145Z,18.78
2018-04-11T08:45:06.115Z,18.79
2018-04-11T08:46:06.101Z,18.77
2018-04-11T08:47:06.120Z,18.74
2018-04-11T08:48:06.170Z,18.77
2018-04-11T08:49:06.110Z,18.71
2018-04-11T08:50:06.114Z,18.72
2018-04-11T08:51:06.195Z,18.76
2018-04-11T08:52:06.158Z,18.71
2018-04-11T08:53:06.112Z,18.69
2018-04-11T08:54:06.149Z,18.7
2018-04-11T08:55:06.095Z,18.7
2018-04-11T08:56:06.112Z,18.69
2018-04-11T08:57:06.115Z,18.69
2018-04-11T08:58:06.110Z,18.67
2018-04-11T08:59:06.117Z,18.7
2018-04-11T09:00:06.136Z,18.69
2018-04-11T09:01:06.098Z,18.71
2018-04-11T09:02:06.100Z,18.7
2018-04-11T09:03:06.187Z,18.71
2018-04-11T09:04:06.117Z,18.71
2018-04-11T09:05:06.090Z,18.7
2018-04-11T09:06:06.159Z,18.71
2018-04-11T09:07:06.126Z,18.71
2018-04-11T09:08:06.222Z,18.74
2018-04-11T09:09:06.162Z,18.72
2018-04-11T09:10:06.100Z,18.74
2018-04-11T09:11:06.112Z,18.72
2018-04-11T09:12:06.182Z,18.72
2018-04-11T09:13:06.127Z,18.76
2018-04-11T09:14:06.077Z,18.73
2018-04-11T09:15:06.114Z,18.74
2018-04-11T09:16:06.093Z,18.73
2018-04-11T09:17:06.096Z,18.74
2018-04-11T09:18:06.099Z,18.73
2018-04-11T09:19:06.161Z,18.76
2018-04-11T09:20:06.137Z,18.76
2018-04-11T09:21:06.117Z,18.74
2018-04-11T09:22:06.140Z,18.77
2018-04-11T09:23:06.143Z,18.76
2018-04-11T09:24:06.196Z,18.74
2018-04-11T09:25:06.252Z,18.77
2018-04-11T09:26:06.598Z,18.76
2018-04-11T09:27:06.565Z,18.77
2018-04-11T09:28:06.096Z,18.77
2018-04-11T09:29:06.095Z,18.72
2018-04-11T09:30:06.076Z,18.74
2018-04-11T09:31:06.082Z,18.77
2018-04-11T09:32:06.073Z,18.74
2018-04-11T09:33:06.385Z,18.77
2018-04-11T09:34:06.150Z,18.77
2018-04-11T09:35:06.054Z,18.77
2018-04-11T09:36:06.083Z,18.73
2018-04-11T09:37:06.095Z,18.78
2018-04-11T09:38:06.122Z,18.73
2018-04-11T09:39:06.120Z,18.76
2018-04-11T09:40:06.223Z,18.78
2018-04-11T09:41:06.141Z,18.76
2018-04-11T09:42:06.078Z,18.77
2018-04-11T09:43:06.130Z,18.76
2018-04-11T09:44:06.102Z,18.73
2018-04-11T09:45:06.136Z,18.74
2018-04-11T09:46:06.180Z,18.74
2018-04-11T09:47:06.095Z,18.72
2018-04-11T09:48:06.106Z,18.74
2018-04-11T09:49:06.126Z,18.74
2018-04-11T09:50:06.125Z,18.74
2018-04-11T09:51:06.174Z,18.74
2018-04-11T09:52:06.105Z,18.73
2018-04-11T09:53:06.129Z,18.74
2018-04-11T09:54:06.091Z,18.74
2018-04-11T09:55:06.089Z,18.74
2018-04-11T09:56:06.096Z,18.71
2018-04-11T09:57:06.090Z,18.73
2018-04-11T09:58:06.277Z,18.73
2018-04-11T09:59:06.085Z,18.72
2018-04-11T10:00:06.097Z,18.7
2018-04-11T10:01:06.082Z,18.72
2018-04-11T10:02:06.108Z,18.71
2018-04-11T10:03:06.141Z,18.7
2018-04-11T10:04:06.075Z,18.7
2018-04-11T10:05:06.145Z,18.67
2018-04-11T10:06:06.112Z,18.66
2018-04-11T10:07:06.093Z,18.66
2018-04-11T10:08:06.107Z,18.66
2018-04-11T10:09:06.086Z,18.65
2018-04-11T10:10:06.095Z,18.67
2018-04-11T10:11:06.078Z,18.66
2018-04-11T10:12:06.095Z,18.64
2018-04-11T10:13:06.237Z,18.64
2018-04-11T10:14:06.156Z,18.63
2018-04-11T10:15:06.088Z,18.62
2018-04-11T10:16:06.120Z,18.64
2018-04-11T10:17:06.104Z,18.63
2018-04-11T10:18:06.279Z,18.62
2018-04-11T10:19:06.479Z,18.61
2018-04-11T10:20:06.085Z,18.62
2018-04-11T10:21:06.226Z,18.61
2018-04-11T10:22:06.141Z,18.59
2018-04-11T10:23:06.111Z,18.58
2018-04-11T10:24:06.105Z,18.58
2018-04-11T10:25:06.139Z,18.56
2018-04-11T10:26:06.088Z,18.57
2018-04-11T10:27:06.111Z,18.56
2018-04-11T10:28:06.340Z,18.57
2018-04-11T10:29:06.115Z,18.54
2018-04-11T10:30:06.148Z,18.56
2018-04-11T10:31:06.129Z,18.53
2018-04-11T10:32:06.245Z,18.54
2018-04-11T10:33:06.207Z,18.54
2018-04-11T10:34:06.301Z,18.53
2018-04-11T10:35:06.085Z,18.53
2018-04-11T10:36:06.174Z,18.49
2018-04-11T10:37:06.130Z,18.49
2018-04-11T10:38:06.205Z,18.49
2018-04-11T10:39:06.135Z,18.49
2018-04-11T10:40:06.303Z,18.47
2018-04-11T10:41:06.111Z,18.47
2018-04-11T10:42:06.074Z,18.44
2018-04-11T10:43:06.226Z,18.44
2018-04-11T10:44:06.077Z,18.46
2018-04-11T10:45:06.139Z,18.44
2018-04-11T10:46:06.092Z,18.44
2018-04-11T10:47:06.096Z,18.42
2018-04-11T10:48:06.127Z,18.43
2018-04-11T10:49:06.087Z,18.42
2018-04-11T10:50:06.096Z,18.43
2018-04-11T10:51:06.131Z,18.41
2018-04-11T10:52:06.098Z,18.41
2018-04-11T10:53:06.086Z,18.44
2018-04-11T10:54:06.080Z,18.4
2018-04-11T10:55:06.113Z,18.4
2018-04-11T10:56:06.084Z,18.39
2018-04-11T10:57:06.074Z,18.4
2018-04-11T10:58:06.078Z,18.38
2018-04-11T10:59:06.084Z,18.39
2018-04-11T11:00:06.083Z,18.4
2018-04-11T11:01:06.149Z,18.38
2018-04-11T11:02:06.101Z,18.38
2018-04-11T11:03:06.059Z,18.38
2018-04-11T11:04:06.077Z,18.37
2018-04-11T11:05:06.076Z,18.38
2018-04-11T11:06:06.088Z,18.37
2018-04-11T11:07:06.092Z,18.37
2018-04-11T11:08:06.179Z,18.35
2018-04-11T11:09:06.055Z,18.34
2018-04-11T11:10:06.089Z,18.35
2018-04-11T11:11:06.110Z,18.35
2018-04-11T11:12:06.244Z,18.32
2018-04-11T11:13:06.097Z,18.33
2018-04-11T11:14:06.127Z,18.34
2018-04-11T11:15:06.077Z,18.3
2018-04-11T11:16:06.061Z,18.33
2018-04-11T11:17:06.052Z,18.3
2018-04-11T11:18:06.077Z,18.33
2018-04-11T11:19:06.095Z,18.3
2018-04-11T11:20:06.151Z,18.26
2018-04-11T11:21:06.206Z,18.32
2018-04-11T11:22:06.087Z,18.3
2018-04-11T11:23:06.124Z,18.32
2018-04-11T11:24:06.089Z,18.29
2018-04-11T11:25:06.080Z,18.3
2018-04-11T11:26:06.232Z,18.27
2018-04-11T11:27:06.156Z,18.27
2018-04-11T11:28:06.121Z,18.26
2018-04-11T11:29:06.102Z,18.27
2018-04-11T11:30:06.036Z,18.27
2018-04-11T11:31:06.051Z,18.26
2018-04-11T11:32:06.297Z,18.28
2018-04-11T11:33:06.096Z,18.26
2018-04-11T11:34:06.064Z,18.25
2018-04-11T11:35:06.089Z,18.26
2018-04-11T11:36:06.099Z,18.26
2018-04-11T11:37:06.060Z,18.26
2018-04-11T11:38:06.069Z,18.25
2018-04-11T11:39:06.038Z,18.26
2018-04-11T11:40:06.071Z,18.26
2018-04-11T11:41:06.233Z,18.23
2018-04-11T11:42:06.075Z,18.24
2018-04-11T11:43:06.070Z,18.24
2018-04-11T11:44:06.115Z,18.23
2018-04-11T11:45:06.063Z,18.22
2018-04-11T11:46:06.098Z,18.22
2018-04-11T11:47:06.183Z,18.25
2018-04-11T11:48:06.057Z,18.21
2018-04-11T11:49:06.229Z,18.22
2018-04-11T11:50:06.075Z,18.24
2018-04-11T11:51:06.056Z,18.24
2018-04-11T11:52:06.386Z,18.22
2018-04-11T11:53:06.052Z,18.22
2018-04-11T11:54:06.158Z,18.22
2018-04-11T11:55:06.113Z,18.23
2018-04-11T11:56:06.060Z,18.2
2018-04-11T11:57:06.044Z,18.22
2018-04-11T11:58:06.062Z,18.26
2018-04-11T11:59:06.259Z,18.25
2018-04-11T12:00:06.073Z,18.26
2018-04-11T12:01:06.090Z,18.28
2018-04-11T12:02:06.041Z,18.26
2018-04-11T12:03:06.026Z,18.28
2018-04-11T12:04:06.057Z,18.27
2018-04-11T12:05:06.041Z,18.29
2018-04-11T12:06:06.077Z,18.28
2018-04-11T12:07:06.069Z,18.26
2018-04-11T12:08:06.075Z,18.28
2018-04-11T12:09:06.217Z,18.28
2018-04-11T12:10:06.054Z,18.27
2018-04-11T12:11:06.039Z,18.28
2018-04-11T12:12:06.028Z,18.27
2018-04-11T12:13:06.284Z,18.26
2018-04-11T12:14:06.047Z,18.27
2018-04-11T12:15:06.025Z,18.26
2018-04-11T12:16:06.100Z,18.27
2018-04-11T12:17:06.043Z,18.27
2018-04-11T12:18:06.046Z,18.26
2018-04-11T12:19:06.182Z,18.26
2018-04-11T12:20:06.196Z,18.28
2018-04-11T12:21:06.085Z,18.26
2018-04-11T12:22:06.097Z,18.26
2018-04-11T12:23:06.075Z,18.29
2018-04-11T12:24:06.412Z,18.29
2018-04-11T12:25:06.451Z,18.32
2018-04-11T12:26:06.036Z,18.33
2018-04-11T12:27:06.017Z,18.3
2018-04-11T12:28:06.177Z,18.34
2018-04-11T12:29:06.076Z,18.33
2018-04-11T12:30:06.068Z,18.33
2018-04-11T12:31:06.055Z,18.37
2018-04-11T12:32:06.310Z,18.36
2018-04-11T12:33:06.173Z,18.37
2018-04-11T12:34:06.212Z,18.41
2018-04-11T12:35:06.047Z,18.4
2018-04-11T12:36:06.102Z,18.4
2018-04-11T12:37:06.326Z,18.41
2018-04-11T12:38:06.110Z,18.4
2018-04-11T12:39:06.052Z,18.39
2018-04-11T12:40:06.029Z,18.38
2018-04-11T12:41:06.036Z,18.39
2018-04-11T12:42:06.236Z,18.37
2018-04-11T12:43:06.067Z,18.38
2018-04-11T12:44:06.091Z,18.37
2018-04-11T12:45:06.219Z,18.36
2018-04-11T12:46:06.039Z,18.36
2018-04-11T12:47:06.047Z,18.34
2018-04-11T12:48:06.355Z,18.35
2018-04-11T12:49:06.077Z,18.35
2018-04-11T12:50:06.076Z,18.33
2018-04-11T12:51:06.107Z,18.33
2018-04-11T12:52:06.065Z,18.33
2018-04-11T12:53:06.043Z,18.33
2018-04-11T12:54:06.070Z,18.33
2018-04-11T12:55:06.045Z,18.35